createdAt,value
2022-12-03T00:00:12.523Z,93996.06
2022-12-03T00:02:41.987Z,93998.31
2022-12-03T00:05:10.839Z,93999.00
2022-12-03T00:07:38.373Z,93997.66
2022-12-03T00:10:07.132Z,94002.31
2022-12-03T00:12:34.536Z,94001.31
2022-12-03T00:15:01.853Z,94001.69
2022-12-03T00:17:30.494Z,94006.59
2022-12-03T00:19:57.898Z,94004.91
2022-12-03T00:22:25.327Z,94012.47
2022-12-03T00:24:53.427Z,94015.59
2022-12-03T00:27:21.519Z,94014.06
2022-12-03T00:29:49.687Z,94014.97
2022-12-03T00:32:17.942Z,94022.50
2022-12-03T00:34:45.759Z,94022.47
2022-12-03T00:37:13.218Z,94021.56
2022-12-03T00:39:41.192Z,94024.59
2022-12-03T00:42:08.532Z,94030.03
2022-12-03T00:44:35.999Z,94025.66
2022-12-03T00:47:04.290Z,94021.16
2022-12-03T00:49:31.939Z,94026.44
2022-12-03T00:51:59.528Z,94022.81
2022-12-03T00:54:31.820Z,94031.38
2022-12-03T00:56:59.800Z,94026.28
2022-12-03T00:59:27.811Z,94029.84
2022-12-03T01:01:55.167Z,94039.09
2022-12-03T01:04:23.036Z,94038.94
2022-12-03T01:06:50.779Z,94047.53
2022-12-03T01:09:18.145Z,94047.56
2022-12-03T01:11:45.582Z,94050.91
2022-12-03T01:14:18.879Z,94052.16
2022-12-03T01:16:46.764Z,94048.16
2022-12-03T01:19:16.342Z,94051.00
2022-12-03T01:21:46.086Z,94055.97
2022-12-03T01:24:15.057Z,94052.03
2022-12-03T01:26:42.908Z,94064.31
2022-12-03T01:29:10.404Z,94062.69
2022-12-03T01:31:56.573Z,94059.94
2022-12-03T01:34:24.158Z,94061.72
2022-12-03T01:36:52.719Z,94067.53
2022-12-03T01:39:20.432Z,94060.75
2022-12-03T01:41:49.792Z,94066.66
2022-12-03T01:44:22.702Z,94052.75
2022-12-03T01:46:51.487Z,94063.87
2022-12-03T01:49:20.635Z,94065.19
2022-12-03T01:51:50.280Z,94060.53
2022-12-03T01:54:21.422Z,94054.84
2022-12-03T01:56:49.485Z,94060.19
2022-12-03T01:59:19.994Z,94056.53
2022-12-03T02:01:47.623Z,94060.91
2022-12-03T02:04:18.181Z,94062.00
2022-12-03T02:06:46.069Z,94056.63
2022-12-03T02:09:14.352Z,94050.06
2022-12-03T02:11:47.262Z,94046.72
2022-12-03T02:14:19.389Z,94059.16
2022-12-03T02:16:47.153Z,94049.22
2022-12-03T02:19:27.261Z,94051.78
2022-12-03T02:22:01.706Z,94049.78
2022-12-03T02:24:49.808Z,94051.94
2022-12-03T02:27:17.811Z,94057.22
2022-12-03T02:29:46.021Z,94045.12
2022-12-03T02:32:13.575Z,94058.50
2022-12-03T02:34:44.152Z,94053.88
2022-12-03T02:37:20.282Z,94051.59
2022-12-03T02:39:53.238Z,94056.03
2022-12-03T02:42:37.094Z,94050.78
2022-12-03T02:45:14.030Z,94046.50
2022-12-03T02:47:49.871Z,94051.84
2022-12-03T02:50:22.329Z,94057.66
2022-12-03T02:52:52.997Z,94051.03
2022-12-03T02:55:21.000Z,94053.97
2022-12-03T02:57:50.568Z,94059.72
2022-12-03T03:00:18.984Z,94059.25
2022-12-03T03:02:47.797Z,94055.50
2022-12-03T03:05:16.437Z,94052.38
2022-12-03T03:07:44.607Z,94050.06
2022-12-03T03:10:15.498Z,94055.66
2022-12-03T03:12:43.547Z,94053.69
2022-12-03T03:15:11.856Z,94052.38
2022-12-03T03:17:40.119Z,94047.81
2022-12-03T03:20:09.591Z,94053.59
2022-12-03T03:22:42.369Z,94054.47
2022-12-03T03:25:13.303Z,94051.94
2022-12-03T03:27:41.930Z,94040.87
2022-12-03T03:30:11.297Z,94046.63
2022-12-03T03:32:39.866Z,94055.91
2022-12-03T03:35:09.085Z,94053.31
2022-12-03T03:37:36.798Z,94052.38
2022-12-03T03:40:04.727Z,94050.84
2022-12-03T03:42:32.375Z,94047.87
2022-12-03T03:45:00.148Z,94049.22
2022-12-03T03:47:27.698Z,94049.66
2022-12-03T03:49:55.917Z,94051.47
2022-12-03T03:52:23.626Z,94049.31
2022-12-03T03:54:51.277Z,94056.94
2022-12-03T03:57:19.113Z,94062.28
2022-12-03T03:59:46.652Z,94059.88
2022-12-03T04:02:20.111Z,94056.31
2022-12-03T04:04:49.072Z,94061.06
2022-12-03T04:07:17.168Z,94063.37
2022-12-03T04:09:45.109Z,94062.63
2022-12-03T04:12:31.634Z,94057.41
2022-12-03T04:14:59.301Z,94062.22
2022-12-03T04:17:27.153Z,94060.09
2022-12-03T04:19:54.485Z,94055.81
2022-12-03T04:22:40.352Z,94065.28
2022-12-03T04:25:28.975Z,94073.59
2022-12-03T04:28:14.822Z,94070.28
2022-12-03T04:30:42.646Z,94072.44
2022-12-03T04:33:28.880Z,94075.72
2022-12-03T04:35:56.639Z,94076.38
2022-12-03T04:38:24.110Z,94080.19
2022-12-03T04:41:06.882Z,94084.13
2022-12-03T04:43:55.260Z,94094.78
2022-12-03T04:46:22.820Z,94089.06
2022-12-03T04:48:50.492Z,94094.87
2022-12-03T04:51:17.816Z,94097.03
2022-12-03T04:53:46.423Z,94098.97
2022-12-03T04:56:14.208Z,94104.16
2022-12-03T04:58:41.439Z,94105.50
2022-12-03T05:01:08.966Z,94108.09
2022-12-03T05:03:36.857Z,94104.06
2022-12-03T05:06:04.410Z,94095.59
2022-12-03T05:08:31.790Z,94098.09
2022-12-03T05:10:59.740Z,94092.47
2022-12-03T05:13:27.147Z,94093.63
2022-12-03T05:15:54.537Z,94093.06
2022-12-03T05:18:22.421Z,94096.94
2022-12-03T05:20:53.162Z,94100.31
2022-12-03T05:23:21.454Z,94094.41
2022-12-03T05:25:49.168Z,94097.09
2022-12-03T05:28:17.692Z,94100.84
2022-12-03T05:30:45.128Z,94100.25
2022-12-03T05:33:13.311Z,94094.97
2022-12-03T05:35:41.837Z,94102.19
2022-12-03T05:38:09.282Z,94106.50
2022-12-03T05:40:37.555Z,94103.09
2022-12-03T05:43:05.383Z,94105.69
2022-12-03T05:45:39.178Z,94107.00
2022-12-03T05:48:10.026Z,94112.38
2022-12-03T05:50:39.697Z,94107.91
2022-12-03T05:53:15.690Z,94110.84
2022-12-03T05:55:43.126Z,94115.16
2022-12-03T05:58:10.586Z,94116.47
2022-12-03T06:00:42.865Z,94110.75
2022-12-03T06:03:11.446Z,94113.56
2022-12-03T06:05:39.011Z,94118.75
2022-12-03T06:08:06.501Z,94128.12
2022-12-03T06:10:34.245Z,94125.09
2022-12-03T06:13:02.377Z,94127.88
2022-12-03T06:15:29.951Z,94129.28
2022-12-03T06:17:57.680Z,94131.09
2022-12-03T06:20:25.057Z,94136.62
2022-12-03T06:22:52.564Z,94138.16
2022-12-03T06:25:20.217Z,94138.56
2022-12-03T06:27:47.609Z,94143.16
2022-12-03T06:30:15.112Z,94147.50
2022-12-03T06:32:42.775Z,94147.19
2022-12-03T06:35:10.122Z,94144.38
2022-12-03T06:37:37.522Z,94140.81
2022-12-03T06:40:05.811Z,94148.78
2022-12-03T06:42:33.151Z,94157.88
2022-12-03T06:45:00.469Z,94154.50
2022-12-03T06:47:30.548Z,94153.97
2022-12-03T06:49:57.963Z,94145.00
2022-12-03T06:52:25.411Z,94143.84
2022-12-03T06:54:53.313Z,94142.50
2022-12-03T06:57:20.897Z,94141.16
2022-12-03T06:59:48.209Z,94143.31
2022-12-03T07:02:16.000Z,94144.38
2022-12-03T07:04:46.234Z,94149.75
2022-12-03T07:07:14.744Z,94152.34
2022-12-03T07:09:42.406Z,94147.94
2022-12-03T07:12:09.752Z,94147.94
2022-12-03T07:14:37.145Z,94159.03
2022-12-03T07:17:04.833Z,94154.75
2022-12-03T07:19:33.179Z,94159.75
2022-12-03T07:22:01.194Z,94158.19
2022-12-03T07:24:29.200Z,94162.81
2022-12-03T07:26:56.744Z,94159.56
2022-12-03T07:29:24.911Z,94161.44
2022-12-03T07:31:53.012Z,94158.31
2022-12-03T07:34:20.382Z,94165.41
2022-12-03T07:36:47.942Z,94160.31
2022-12-03T07:39:15.976Z,94159.50
2022-12-03T07:41:43.308Z,94158.88
2022-12-03T07:44:14.194Z,94167.00
2022-12-03T07:46:43.040Z,94169.59
2022-12-03T07:49:12.267Z,94167.47
2022-12-03T07:51:39.575Z,94166.03
2022-12-03T07:54:07.400Z,94164.16
2022-12-03T07:56:34.831Z,94163.78
2022-12-03T07:59:02.265Z,94172.81
2022-12-03T08:01:30.081Z,94176.72
2022-12-03T08:03:58.199Z,94169.41
2022-12-03T08:06:26.249Z,94164.69
2022-12-03T08:08:53.573Z,94160.75
2022-12-03T08:11:21.424Z,94170.25
2022-12-03T08:13:49.001Z,94175.88
2022-12-03T08:16:19.073Z,94174.78
2022-12-03T08:18:48.367Z,94172.72
2022-12-03T08:21:18.173Z,94178.72
2022-12-03T08:23:46.057Z,94175.59
2022-12-03T08:26:28.178Z,94175.12
2022-12-03T08:28:55.581Z,94179.97
2022-12-03T08:31:32.821Z,94178.97
2022-12-03T08:34:22.847Z,94185.63
2022-12-03T08:37:05.981Z,94183.47
2022-12-03T08:39:35.279Z,94180.88
2022-12-03T08:42:42.930Z,94190.53
2022-12-03T08:45:22.173Z,94190.34
2022-12-03T08:47:49.855Z,94188.28
2022-12-03T08:50:38.616Z,94188.03
2022-12-03T08:53:25.715Z,94196.78
2022-12-03T08:55:56.312Z,94192.41
2022-12-03T08:58:28.969Z,94205.91
2022-12-03T09:01:11.650Z,94206.81
2022-12-03T09:03:54.723Z,94194.75
2022-12-03T09:06:22.943Z,94198.22
2022-12-03T09:08:51.118Z,94198.97
2022-12-03T09:11:18.505Z,94195.19
2022-12-03T09:13:45.986Z,94195.34
2022-12-03T09:16:13.738Z,94195.53
2022-12-03T09:18:41.479Z,94196.06
2022-12-03T09:21:08.990Z,94196.44
2022-12-03T09:23:37.064Z,94196.62
2022-12-03T09:26:04.792Z,94186.84
2022-12-03T09:28:32.257Z,94184.59
2022-12-03T09:31:00.041Z,94191.00
2022-12-03T09:33:27.478Z,94192.22
2022-12-03T09:35:54.841Z,94194.94
2022-12-03T09:38:22.525Z,94189.44
2022-12-03T09:40:49.968Z,94183.97
2022-12-03T09:43:17.894Z,94174.97
2022-12-03T09:45:46.903Z,94182.91
2022-12-03T09:48:17.183Z,94181.81
2022-12-03T09:50:45.679Z,94169.75
2022-12-03T09:53:21.196Z,94172.72
2022-12-03T09:55:49.515Z,94169.50
2022-12-03T09:58:19.397Z,94173.53
2022-12-03T10:00:51.862Z,94164.84
2022-12-03T10:03:29.545Z,94164.84
2022-12-03T10:05:58.020Z,94156.13
2022-12-03T10:08:31.981Z,94157.06
2022-12-03T10:10:59.825Z,94157.94
2022-12-03T10:13:32.339Z,94154.84
2022-12-03T10:16:01.130Z,94150.28
2022-12-03T10:18:34.460Z,94151.50
2022-12-03T10:21:04.383Z,94144.38
2022-12-03T10:23:33.329Z,94137.75
2022-12-03T10:26:06.174Z,94138.94
2022-12-03T10:28:36.986Z,94139.37
2022-12-03T10:31:08.412Z,94143.25
2022-12-03T10:33:39.153Z,94142.03
2022-12-03T10:36:19.009Z,94148.28
2022-12-03T10:38:47.559Z,94141.44
2022-12-03T10:41:26.776Z,94133.03
2022-12-03T10:43:54.746Z,94126.63
2022-12-03T10:46:23.339Z,94131.09
2022-12-03T10:49:11.358Z,94138.81
2022-12-03T10:51:39.654Z,94131.09
2022-12-03T10:54:16.046Z,94140.78
2022-12-03T10:56:44.600Z,94134.16
2022-12-03T10:59:19.169Z,94131.34
2022-12-03T11:01:47.830Z,94126.16
2022-12-03T11:04:36.349Z,94123.53
2022-12-03T11:07:14.297Z,94117.34
2022-12-03T11:09:45.008Z,94110.31
2022-12-03T11:12:24.880Z,94114.84
2022-12-03T11:14:54.124Z,94111.28
2022-12-03T11:17:43.273Z,94119.84
2022-12-03T11:20:33.501Z,94113.84
2022-12-03T11:23:01.727Z,94111.53
2022-12-03T11:25:29.213Z,94106.16
2022-12-03T11:28:12.093Z,94108.06
2022-12-03T11:30:51.998Z,94104.16
2022-12-03T11:33:31.362Z,94104.91
2022-12-03T11:36:08.167Z,94103.53
2022-12-03T11:38:38.563Z,94098.84
2022-12-03T11:41:35.037Z,94109.09
2022-12-03T11:44:29.942Z,94107.09
2022-12-03T11:46:59.550Z,94101.69
2022-12-03T11:49:40.172Z,94089.34
2022-12-03T11:52:31.347Z,94089.19
2022-12-03T11:55:03.153Z,94091.19
2022-12-03T11:57:37.387Z,94093.13
2022-12-03T12:00:19.949Z,94099.53
2022-12-03T12:02:49.428Z,94089.59
2022-12-03T12:05:28.164Z,94089.00
2022-12-03T12:07:57.265Z,94088.13
2022-12-03T12:10:43.576Z,94089.53
2022-12-03T12:13:30.752Z,94091.19
2022-12-03T12:16:03.089Z,94084.88
2022-12-03T12:18:44.215Z,94089.13
2022-12-03T12:21:42.842Z,94084.91
2022-12-03T12:24:29.551Z,94085.97
2022-12-03T12:26:58.786Z,94082.38
2022-12-03T12:29:28.071Z,94079.13
2022-12-03T12:32:15.248Z,94089.25
2022-12-03T12:34:42.858Z,94088.28
2022-12-03T12:37:23.234Z,94090.88
2022-12-03T12:39:54.820Z,94092.34
2022-12-03T12:42:30.347Z,94085.75
2022-12-03T12:45:12.170Z,94087.44
2022-12-03T12:47:42.873Z,94090.47
2022-12-03T12:50:11.987Z,94091.91
2022-12-03T12:53:10.597Z,94097.72
2022-12-03T12:55:39.923Z,94084.72
2022-12-03T12:58:19.364Z,94082.03
2022-12-03T13:00:51.384Z,94086.53
2022-12-03T13:03:20.856Z,94089.44
2022-12-03T13:05:50.081Z,94091.38
2022-12-03T13:08:28.253Z,94093.97
2022-12-03T13:11:01.326Z,94090.16
2022-12-03T13:13:32.134Z,94086.81
2022-12-03T13:16:01.666Z,94083.34
2022-12-03T13:18:39.453Z,94080.50
2022-12-03T13:21:15.631Z,94085.59
2022-12-03T13:23:43.944Z,94088.22
2022-12-03T13:26:34.661Z,94085.87
2022-12-03T13:29:16.650Z,94083.22
2022-12-03T13:32:05.536Z,94077.97
2022-12-03T13:34:34.168Z,94075.19
2022-12-03T13:37:02.937Z,94076.53
2022-12-03T13:39:41.239Z,94078.53
2022-12-03T13:42:42.466Z,94072.59
2022-12-03T13:45:19.181Z,94082.50
2022-12-03T13:47:49.544Z,94077.78
2022-12-03T13:50:45.155Z,94077.56
2022-12-03T13:53:27.405Z,94079.28
2022-12-03T13:56:03.653Z,94083.12
2022-12-03T13:58:31.352Z,94076.69
2022-12-03T14:00:58.850Z,94079.09
2022-12-03T14:03:26.602Z,94082.12
2022-12-03T14:05:54.007Z,94088.94
2022-12-03T14:08:21.398Z,94085.47
2022-12-03T14:10:49.077Z,94088.19
2022-12-03T14:13:16.335Z,94090.28
2022-12-03T14:15:43.677Z,94092.63
2022-12-03T14:18:11.478Z,94095.13
2022-12-03T14:20:39.173Z,94094.37
2022-12-03T14:23:06.459Z,94099.16
2022-12-03T14:25:34.204Z,94102.47
2022-12-03T14:28:01.663Z,94100.81
2022-12-03T14:30:30.696Z,94096.22
2022-12-03T14:32:58.699Z,94104.06
2022-12-03T14:35:26.212Z,94104.16
2022-12-03T14:37:53.618Z,94107.22
2022-12-03T14:40:22.092Z,94107.19
2022-12-03T14:42:49.823Z,94106.72
2022-12-03T14:45:17.094Z,94105.06
2022-12-03T14:47:44.672Z,94112.44
2022-12-03T14:50:14.557Z,94108.09
2022-12-03T14:52:43.507Z,94120.72
2022-12-03T14:55:11.242Z,94117.28
2022-12-03T14:57:39.782Z,94118.16
2022-12-03T15:00:10.099Z,94117.50
2022-12-03T15:02:39.709Z,94125.22
2022-12-03T15:05:07.708Z,94123.22
2022-12-03T15:07:35.268Z,94132.53
2022-12-03T15:10:03.272Z,94134.63
2022-12-03T15:12:31.744Z,94142.66
2022-12-03T15:14:59.584Z,94142.34
2022-12-03T15:17:31.649Z,94135.31
2022-12-03T15:19:59.650Z,94140.06
2022-12-03T15:22:27.375Z,94146.47
2022-12-03T15:24:55.137Z,94140.31
2022-12-03T15:27:22.636Z,94148.84
2022-12-03T15:29:51.105Z,94149.19
2022-12-03T15:32:19.177Z,94153.59
2022-12-03T15:34:46.607Z,94154.47
2022-12-03T15:37:15.077Z,94152.72
2022-12-03T15:39:48.169Z,94151.62
2022-12-03T15:42:16.509Z,94147.50
2022-12-03T15:44:46.284Z,94151.91
2022-12-03T15:47:13.640Z,94150.16
2022-12-03T15:49:41.370Z,94157.50
2022-12-03T15:52:08.731Z,94161.75
2022-12-03T15:54:36.101Z,94161.13
2022-12-03T15:57:05.091Z,94160.47
2022-12-03T15:59:32.621Z,94161.53
2022-12-03T16:02:00.188Z,94167.56
2022-12-03T16:04:27.936Z,94158.84
2022-12-03T16:06:55.296Z,94167.34
2022-12-03T16:09:27.130Z,94164.38
2022-12-03T16:11:55.606Z,94163.13
2022-12-03T16:14:23.013Z,94169.97
2022-12-03T16:16:50.464Z,94169.31
2022-12-03T16:19:18.396Z,94176.56
2022-12-03T16:21:45.714Z,94171.56
2022-12-03T16:24:13.503Z,94173.00
2022-12-03T16:26:41.345Z,94172.56
2022-12-03T16:29:08.943Z,94170.03
2022-12-03T16:31:36.914Z,94168.84
2022-12-03T16:34:06.296Z,94182.41
2022-12-03T16:36:33.973Z,94178.19
2022-12-03T16:39:01.412Z,94179.78
2022-12-03T16:41:29.251Z,94178.63
2022-12-03T16:43:56.772Z,94186.13
2022-12-03T16:46:27.023Z,94174.75
2022-12-03T16:48:58.080Z,94176.75
2022-12-03T16:51:27.360Z,94174.75
2022-12-03T16:53:55.189Z,94180.34
2022-12-03T16:56:22.674Z,94179.88
2022-12-03T16:58:50.106Z,94188.56
2022-12-03T17:01:18.677Z,94190.31
2022-12-03T17:03:46.067Z,94183.81
2022-12-03T17:06:13.485Z,94184.87
2022-12-03T17:08:47.276Z,94193.75
2022-12-03T17:11:16.684Z,94194.53
2022-12-03T17:13:49.073Z,94197.69
2022-12-03T17:16:19.283Z,94193.03
2022-12-03T17:18:47.989Z,94195.19
2022-12-03T17:21:15.366Z,94195.50
2022-12-03T17:23:43.417Z,94196.59
2022-12-03T17:26:11.557Z,94207.72
2022-12-03T17:28:38.852Z,94203.84
2022-12-03T17:31:07.030Z,94200.47
2022-12-03T17:33:35.321Z,94202.78
2022-12-03T17:36:02.825Z,94199.03
2022-12-03T17:38:37.171Z,94197.06
2022-12-03T17:41:07.685Z,94196.31
2022-12-03T17:43:35.102Z,94190.59
2022-12-03T17:46:02.663Z,94197.50
2022-12-03T17:48:31.504Z,94195.72
2022-12-03T17:51:01.629Z,94201.16
2022-12-03T17:53:32.268Z,94196.88
2022-12-03T17:55:59.616Z,94198.31
2022-12-03T17:58:27.869Z,94192.13
2022-12-03T18:01:01.775Z,94192.94
2022-12-03T18:03:31.789Z,94194.06
2022-12-03T18:05:59.475Z,94197.25
2022-12-03T18:08:27.213Z,94200.28
2022-12-03T18:10:55.480Z,94202.25
2022-12-03T18:13:22.823Z,94202.34
2022-12-03T18:15:51.367Z,94198.75
2022-12-03T18:18:19.208Z,94204.41
2022-12-03T18:20:46.721Z,94199.41
2022-12-03T18:23:14.112Z,94200.84
2022-12-03T18:25:42.789Z,94202.34
2022-12-03T18:28:10.520Z,94203.06
2022-12-03T18:30:39.663Z,94201.78
2022-12-03T18:33:08.603Z,94206.81
2022-12-03T18:35:36.184Z,94217.81
2022-12-03T18:38:03.710Z,94214.31
2022-12-03T18:40:31.446Z,94211.91
2022-12-03T18:42:59.200Z,94213.22
2022-12-03T18:45:26.569Z,94219.84
2022-12-03T18:47:55.369Z,94218.69
2022-12-03T18:50:22.777Z,94218.97
2022-12-03T18:52:50.221Z,94214.50
2022-12-03T18:55:19.691Z,94207.31
2022-12-03T18:57:47.517Z,94215.09
2022-12-03T19:00:16.269Z,94217.41
2022-12-03T19:05:34.088Z,94225.47
2022-12-03T19:08:02.290Z,94229.63
2022-12-03T19:10:30.298Z,94219.59
2022-12-03T19:12:57.854Z,94220.16
2022-12-03T19:15:25.653Z,94226.31
2022-12-03T19:17:53.041Z,94224.78
2022-12-03T19:20:20.899Z,94232.56
2022-12-03T19:22:48.664Z,94233.72
2022-12-03T19:25:16.142Z,94238.84
2022-12-03T19:27:43.740Z,94240.19
2022-12-03T19:30:12.314Z,94245.09
2022-12-03T19:32:39.870Z,94241.16
2022-12-03T19:35:08.036Z,94243.31
2022-12-03T19:37:35.717Z,94248.06
2022-12-03T19:40:03.305Z,94245.53
2022-12-03T19:42:31.368Z,94243.84
2022-12-03T19:44:59.123Z,94237.50
2022-12-03T19:47:26.594Z,94236.31
2022-12-03T19:49:54.267Z,94234.44
2022-12-03T19:52:22.177Z,94241.78
2022-12-03T19:54:49.717Z,94240.91
2022-12-03T19:57:23.061Z,94237.22
2022-12-03T19:59:51.675Z,94234.81
2022-12-03T20:02:19.356Z,94234.28
2022-12-03T20:04:47.233Z,94239.09
2022-12-03T20:07:14.883Z,94232.50
2022-12-03T20:09:42.354Z,94234.53
2022-12-03T20:12:10.058Z,94231.22
2022-12-03T20:14:37.475Z,94228.91
2022-12-03T20:17:04.929Z,94234.16
2022-12-03T20:19:32.763Z,94230.22
2022-12-03T20:22:02.839Z,94222.81
2022-12-03T20:24:31.162Z,94229.53
2022-12-03T20:26:59.593Z,94232.84
2022-12-03T20:29:26.945Z,94237.41
2022-12-03T20:31:54.439Z,94234.38
2022-12-03T20:34:22.393Z,94245.72
2022-12-03T20:36:49.798Z,94248.84
2022-12-03T20:39:17.146Z,94244.91
2022-12-03T20:41:44.968Z,94247.69
2022-12-03T20:44:14.153Z,94242.59
2022-12-03T20:46:41.772Z,94242.12
2022-12-03T20:49:09.637Z,94240.06
2022-12-03T20:51:37.034Z,94234.88
2022-12-03T20:54:04.509Z,94233.00
2022-12-03T20:56:35.887Z,94242.66
2022-12-03T20:59:06.606Z,94246.34
2022-12-03T21:01:36.447Z,94246.81
2022-12-03T21:04:05.930Z,94246.53
2022-12-03T21:06:36.077Z,94251.75
2022-12-03T21:09:06.508Z,94244.03
2022-12-03T21:11:36.156Z,94245.66
2022-12-03T21:14:04.343Z,94241.16
2022-12-03T21:17:06.094Z,94241.50
2022-12-03T21:19:23.194Z,94239.03
2022-12-03T21:21:50.557Z,94239.03
2022-12-03T21:24:17.922Z,94241.06
2022-12-03T21:26:45.793Z,94239.56
2022-12-03T21:29:13.229Z,94240.78
2022-12-03T21:31:42.566Z,94236.50
2022-12-03T21:34:10.542Z,94247.59
2022-12-03T21:36:38.295Z,94243.31
2022-12-03T21:39:06.740Z,94244.09
2022-12-03T21:41:35.714Z,94239.03
2022-12-03T21:44:03.510Z,94247.16
2022-12-03T21:47:11.220Z,94251.28
2022-12-03T21:49:20.480Z,94251.00
2022-12-03T21:51:47.921Z,94248.56
2022-12-03T21:54:17.063Z,94251.09
2022-12-03T21:56:44.930Z,94250.66
2022-12-03T21:59:12.301Z,94248.25
2022-12-03T22:01:42.923Z,94253.06
2022-12-03T22:04:13.413Z,94251.19
2022-12-03T22:06:40.934Z,94247.59
2022-12-03T22:09:08.384Z,94251.72
2022-12-03T22:11:36.239Z,94245.47
2022-12-03T22:14:04.954Z,94241.00
2022-12-03T22:16:32.639Z,94244.22
2022-12-03T22:19:00.566Z,94231.50
2022-12-03T22:21:27.916Z,94237.69
2022-12-03T22:23:56.479Z,94241.97
2022-12-03T22:26:24.233Z,94229.44
2022-12-03T22:28:51.691Z,94224.16
2022-12-03T22:31:19.290Z,94233.19
2022-12-03T22:33:48.603Z,94226.94
2022-12-03T22:36:20.912Z,94224.63
2022-12-03T22:38:51.045Z,94228.81
2022-12-03T22:41:19.496Z,94231.31
2022-12-03T22:43:47.322Z,94227.94
2022-12-03T22:46:16.223Z,94223.53
2022-12-03T22:48:45.609Z,94229.00
2022-12-03T22:51:15.979Z,94225.88
2022-12-03T22:53:44.013Z,94225.50
2022-12-03T22:56:11.951Z,94222.66
2022-12-03T22:58:40.618Z,94215.25
2022-12-03T23:01:08.406Z,94220.44
2022-12-03T23:03:37.227Z,94210.03
2022-12-03T23:06:11.773Z,94225.06
2022-12-03T23:08:39.915Z,94216.22
2022-12-03T23:11:08.263Z,94208.44
2022-12-03T23:13:36.043Z,94209.59
2022-12-03T23:16:04.449Z,94208.44
2022-12-03T23:18:32.138Z,94214.94
2022-12-03T23:20:59.694Z,94208.31
2022-12-03T23:23:28.627Z,94206.09
2022-12-03T23:25:57.780Z,94208.44
2022-12-03T23:28:25.764Z,94211.09
2022-12-03T23:30:53.677Z,94211.62
2022-12-03T23:33:21.623Z,94209.34
2022-12-03T23:35:49.374Z,94208.50
2022-12-03T23:38:17.374Z,94207.47
2022-12-03T23:40:48.087Z,94207.87
2022-12-03T23:43:16.492Z,94208.50
2022-12-03T23:45:44.127Z,94209.34
2022-12-03T23:48:11.481Z,94202.09
2022-12-03T23:50:41.493Z,94207.87
2022-12-03T23:53:09.323Z,94201.63
2022-12-03T23:55:40.029Z,94212.19
2022-12-03T23:58:07.691Z,94206.19
